San Luis, CO (81152)

1:07 AM MST on December 03, 2016 (GMT -0700)
Amalia | | Change Station

Elev 8081 ft 36.95 °N, 105.47 °W | Updated 21 seconds ago

Overcast
Overcast
14.5 °F
Feels Like 14 °F
N
2.0
Wind Variable Wind from NW

Today
High -- | Low -- °F
--% Chance of Precip.
Yesterday
High -- | Low -- °F
Precip. -- in
Pressure 30.21 in
Visibility 10.0 miles
Clouds Overcast 1100 ft
Windchill 14 °F
Dew Point 14 °F
Humidity 98%
Rainfall 0.00 in
Snow Depth Not available.
6:59 AM 4:44 PM
Waxing Crescent, 13% visible
METAR KALS 030752Z AUTO 26005KT 10SM OVC011 M06/M08 A3010 RMK AO2 SLP228 T10611078
Pressure 30.21 in
Visibility 10.0 miles
Clouds Overcast 1100 ft
Windchill 14 °F
Dew Point 14 °F
Humidity 98%
Rainfall 0.00 in
Snow Depth Not available.
6:59 AM 4:44 PM
Waxing Crescent, 13% visible
METAR KALS 030752Z AUTO 26005KT 10SM OVC011 M06/M08 A3010 RMK AO2 SLP228 T10611078

10-Day Weather Forecast

Almanac

Astronomy

Dec. 03, 2016 Rise Set
Actual Time
Civil Twilight
Nautical Twilight
Astronomical Twilight
Moon
Length of Visible Light
Length of Day
Tomorrow will be .
, % of the Moon is Illuminated

Today's Extremes

State Highs State Lows

Community

WunderPhotos

Upload Photos

1,955,432 photos uploaded!

WunderBlog® & News

Nearby

Air Quality

  Air Quality AQ Index Pollutant
Not available.

Snow Depth

Station Depth Elevation

Earthquake Activity

City Distance Mag. Time & Date
Minimum magnitude displayed is 2.5.

Coastal Water Temperatures

Place Temperature

Stations

Nearby Weather Stations

Station Location Temp. Windchill Dew Point Humidity Wind Precip. Elev Updated Type
                   

Watches & Warnings

There are currently no watches in effect.